createdAt,value
2018-09-12T00:00:03.769Z,1008.42
2018-09-12T00:01:03.776Z,1008.37
2018-09-12T00:02:03.740Z,1008.39
2018-09-12T00:03:03.735Z,1008.34
2018-09-12T00:04:03.723Z,1008.43
2018-09-12T00:05:03.712Z,1008.34
2018-09-12T00:06:03.722Z,1008.31
2018-09-12T00:07:03.684Z,1008.33
2018-09-12T00:08:03.670Z,1008.32
2018-09-12T00:09:03.662Z,1008.33
2018-09-12T00:10:03.648Z,1008.32
2018-09-12T00:11:03.662Z,1008.28
2018-09-12T00:12:03.627Z,1008.28
2018-09-12T00:13:03.613Z,1008.28
2018-09-12T00:14:03.599Z,1008.30
2018-09-12T00:15:03.599Z,1008.30
2018-09-12T00:16:03.603Z,1008.29
2018-09-12T00:17:03.568Z,1008.23
2018-09-12T00:18:03.560Z,1008.34
2018-09-12T00:19:03.540Z,1008.27
2018-09-12T00:20:03.532Z,1008.19
2018-09-12T00:21:03.547Z,1008.18
2018-09-12T00:22:03.516Z,1008.15
2018-09-12T00:23:03.494Z,1008.15
2018-09-12T00:24:03.488Z,1008.17
2018-09-12T00:25:03.475Z,1008.17
2018-09-12T00:26:03.480Z,1008.14
2018-09-12T00:27:03.451Z,1008.14
2018-09-12T00:28:03.443Z,1008.17
2018-09-12T00:29:03.431Z,1008.12
2018-09-12T00:30:03.426Z,1008.09
2018-09-12T00:31:03.425Z,1008.11
2018-09-12T00:32:03.397Z,1008.09
2018-09-12T00:33:03.382Z,1008.06
2018-09-12T00:34:03.369Z,1008.07
2018-09-12T00:35:03.365Z,1008.05
2018-09-12T00:36:03.369Z,1008.06
2018-09-12T00:37:03.348Z,1008.06
2018-09-12T00:38:03.320Z,1008.05
2018-09-12T00:39:03.312Z,1008.02
2018-09-12T00:40:03.300Z,1008.05
2018-09-12T00:41:03.308Z,1008.03
2018-09-12T00:42:03.276Z,1008.02
2018-09-12T00:43:03.268Z,1008.03
2018-09-12T00:44:03.256Z,1008.03
2018-09-12T00:45:03.241Z,1008.00
2018-09-12T00:46:03.253Z,1007.98
2018-09-12T00:47:03.217Z,1008.02
2018-09-12T00:48:03.205Z,1007.96
2018-09-12T00:49:03.197Z,1008.00
2018-09-12T00:50:03.182Z,1008.01
2018-09-12T00:51:03.196Z,1008.00
2018-09-12T00:52:03.165Z,1008.02
2018-09-12T00:53:03.147Z,1007.96
2018-09-12T00:54:03.135Z,1007.96
2018-09-12T00:55:03.120Z,1008.02
2018-09-12T00:56:03.136Z,1007.93
2018-09-12T00:57:03.109Z,1007.96
2018-09-12T00:58:03.087Z,1007.97
2018-09-12T00:59:03.083Z,1007.88
2018-09-12T01:00:03.062Z,1007.93
2018-09-12T01:01:03.077Z,1007.90
2018-09-12T01:02:03.045Z,1007.92
2018-09-12T01:03:03.026Z,1007.88
2018-09-12T01:04:03.017Z,1007.93
2018-09-12T01:05:03.003Z,1007.90
2018-09-12T01:06:03.009Z,1007.91
2018-09-12T01:07:02.985Z,1007.92
2018-09-12T01:08:02.976Z,1007.96
2018-09-12T01:09:02.958Z,1007.93
2018-09-12T01:10:02.950Z,1007.93
2018-09-12T01:11:02.961Z,1007.89
2018-09-12T01:12:02.927Z,1007.88
2018-09-12T01:13:02.911Z,1007.92
2018-09-12T01:14:02.905Z,1007.92
2018-09-12T01:15:02.882Z,1007.87
2018-09-12T01:16:02.898Z,1007.91
2018-09-12T01:17:02.859Z,1007.90
2018-09-12T01:18:02.846Z,1007.92
2018-09-12T01:19:02.843Z,1007.95
2018-09-12T01:20:02.824Z,1007.95
2018-09-12T01:21:02.840Z,1007.95
2018-09-12T01:22:02.806Z,1007.89
2018-09-12T01:23:02.787Z,1007.90
2018-09-12T01:24:02.778Z,1007.81
2018-09-12T01:25:02.763Z,1007.88
2018-09-12T01:26:02.776Z,1007.84
2018-09-12T01:27:02.739Z,1007.80
2018-09-12T01:28:02.735Z,1007.78
2018-09-12T01:29:02.720Z,1007.77
2018-09-12T01:30:02.712Z,1007.82
2018-09-12T01:31:02.725Z,1007.78
2018-09-12T01:32:02.682Z,1007.75
2018-09-12T01:33:02.673Z,1007.78
2018-09-12T01:34:02.666Z,1007.77
2018-09-12T01:35:02.643Z,1007.80
2018-09-12T01:36:02.665Z,1007.73
2018-09-12T01:37:02.622Z,1007.77
2018-09-12T01:38:02.608Z,1007.78
2018-09-12T01:39:02.608Z,1007.77
2018-09-12T01:40:02.589Z,1007.80
2018-09-12T01:41:02.602Z,1007.75
2018-09-12T01:42:02.570Z,1007.73
2018-09-12T01:43:02.557Z,1007.70
2018-09-12T01:44:02.545Z,1007.70
2018-09-12T01:45:02.530Z,1007.69
2018-09-12T01:46:02.544Z,1007.66
2018-09-12T01:47:02.501Z,1007.65
2018-09-12T01:48:02.494Z,1007.66
2018-09-12T01:49:02.480Z,1007.62
2018-09-12T01:50:02.471Z,1007.61
2018-09-12T01:51:02.477Z,1007.64
2018-09-12T01:52:02.444Z,1007.65
2018-09-12T01:53:02.436Z,1007.61
2018-09-12T01:54:02.419Z,1007.63
2018-09-12T01:55:02.411Z,1007.59
2018-09-12T01:56:02.430Z,1007.62
2018-09-12T01:57:02.381Z,1007.62
2018-09-12T01:58:02.374Z,1007.62
2018-09-12T01:59:02.365Z,1007.62
2018-09-12T02:00:02.349Z,1007.61
2018-09-12T02:01:02.375Z,1007.65
2018-09-12T02:02:02.330Z,1007.63
2018-09-12T02:03:02.314Z,1007.59
2018-09-12T02:04:02.305Z,1007.60
2018-09-12T02:05:02.295Z,1007.61
2018-09-12T02:06:02.276Z,1007.62
2018-09-12T02:07:02.291Z,1007.59
2018-09-12T02:08:02.254Z,1007.56
2018-09-12T02:09:02.247Z,1007.52
2018-09-12T02:10:02.238Z,1007.54
2018-09-12T02:11:02.218Z,1007.58
2018-09-12T02:12:02.229Z,1007.57
2018-09-12T02:13:02.203Z,1007.58
2018-09-12T02:14:02.188Z,1007.59
2018-09-12T02:15:02.171Z,1007.52
2018-09-12T02:16:02.162Z,1007.52
2018-09-12T02:17:02.172Z,1007.52
2018-09-12T02:18:02.134Z,1007.45
2018-09-12T02:19:02.131Z,1007.50
2018-09-12T02:20:02.117Z,1007.44
2018-09-12T02:21:02.103Z,1007.45
2018-09-12T02:22:02.116Z,1007.49
2018-09-12T02:23:02.082Z,1007.51
2018-09-12T02:24:02.325Z,1007.55
2018-09-12T02:25:02.061Z,1007.48
2018-09-12T02:26:02.039Z,1007.42
2018-09-12T02:27:02.059Z,1007.47
2018-09-12T02:28:02.014Z,1007.47
2018-09-12T02:29:02.013Z,1007.47
2018-09-12T02:30:01.998Z,1007.47
2018-09-12T02:31:01.982Z,1007.45
2018-09-12T02:32:02.002Z,1007.38
2018-09-12T02:33:01.974Z,1007.35
2018-09-12T02:34:01.945Z,1007.38
2018-09-12T02:35:01.943Z,1007.34
2018-09-12T02:36:01.948Z,1007.37
2018-09-12T02:37:01.942Z,1007.38
2018-09-12T02:38:01.904Z,1007.37
2018-09-12T02:39:01.889Z,1007.35
2018-09-12T02:40:01.877Z,1007.36
2018-09-12T02:41:01.871Z,1007.35
2018-09-12T02:42:01.890Z,1007.36
2018-09-12T02:43:01.840Z,1007.40
2018-09-12T02:44:01.836Z,1007.33
2018-09-12T02:45:01.816Z,1007.35
2018-09-12T02:46:01.808Z,1007.40
2018-09-12T02:47:01.799Z,1007.39
2018-09-12T02:48:01.814Z,1007.45
2018-09-12T02:49:01.772Z,1007.41
2018-09-12T02:50:01.758Z,1007.44
2018-09-12T02:51:01.755Z,1007.43
2018-09-12T02:52:01.740Z,1007.46
2018-09-12T02:53:01.750Z,1007.42
2018-09-12T02:54:01.718Z,1007.42
2018-09-12T02:55:01.718Z,1007.36
2018-09-12T02:56:01.688Z,1007.39
2018-09-12T02:57:01.684Z,1007.44
2018-09-12T02:58:01.694Z,1007.44
2018-09-12T02:59:01.658Z,1007.43
2018-09-12T03:00:01.642Z,1007.36
2018-09-12T03:01:01.638Z,1007.40
2018-09-12T03:02:01.620Z,1007.40
2018-09-12T03:03:01.637Z,1007.37
2018-09-12T03:04:01.595Z,1007.35
2018-09-12T03:05:01.589Z,1007.32
2018-09-12T03:06:01.573Z,1007.31
2018-09-12T03:07:01.564Z,1007.35
2018-09-12T03:08:01.619Z,1007.27
2018-09-12T03:09:01.542Z,1007.25
2018-09-12T03:10:01.527Z,1007.20
2018-09-12T03:11:01.520Z,1007.18
2018-09-12T03:12:01.509Z,1007.14
2018-09-12T03:13:01.511Z,1007.12
2018-09-12T03:14:01.477Z,1007.12
2018-09-12T03:15:01.486Z,1007.12
2018-09-12T03:16:01.455Z,1007.07
2018-09-12T03:17:01.446Z,1007.07
2018-09-12T03:18:01.461Z,1007.04
2018-09-12T03:19:01.420Z,1007.09
2018-09-12T03:20:01.412Z,1007.08
2018-09-12T03:21:01.579Z,1007.06
2018-09-12T03:22:01.381Z,1007.09
2018-09-12T03:23:01.407Z,1007.17
2018-09-12T03:24:01.361Z,1007.10
2018-09-12T03:25:01.352Z,1007.09
2018-09-12T03:26:01.343Z,1007.06
2018-09-12T03:27:01.330Z,1007.11
2018-09-12T03:28:01.318Z,1007.11
2018-09-12T03:29:01.333Z,1007.12
2018-09-12T03:30:01.289Z,1007.09
2018-09-12T03:31:01.286Z,1007.08
2018-09-12T03:32:01.266Z,1007.06
2018-09-12T03:33:01.263Z,1007.07
2018-09-12T03:34:01.248Z,1007.02
2018-09-12T03:35:01.257Z,1007.08
2018-09-12T03:36:01.229Z,1007.03
2018-09-12T03:37:01.208Z,1007.06
2018-09-12T03:38:01.199Z,1007.12
2018-09-12T03:39:01.193Z,1007.08
2018-09-12T03:40:01.201Z,1007.10
2018-09-12T03:41:01.164Z,1007.05
2018-09-12T03:42:01.152Z,1007.07
2018-09-12T03:43:01.148Z,1007.02
2018-09-12T03:44:01.135Z,1007.07
2018-09-12T03:45:01.137Z,1007.05
2018-09-12T03:46:01.110Z,1007.07
2018-09-12T03:47:01.097Z,1007.04
2018-09-12T03:48:01.160Z,1006.99
2018-09-12T03:49:01.068Z,1007.08
2018-09-12T03:50:01.082Z,1007.08
2018-09-12T03:51:01.052Z,1007.02
2018-09-12T03:52:01.041Z,1007.09
2018-09-12T03:53:01.024Z,1007.01
2018-09-12T03:54:01.008Z,1007.03
2018-09-12T03:55:01.032Z,1007.02
2018-09-12T03:56:00.992Z,1006.99
2018-09-12T03:57:00.983Z,1007.02
2018-09-12T03:58:00.970Z,1007.01
2018-09-12T03:59:00.960Z,1007.02
2018-09-12T04:00:00.961Z,1006.99
2018-09-12T04:01:00.940Z,1007.00
2018-09-12T04:02:00.918Z,1007.04
2018-09-12T04:03:00.918Z,1007.05
2018-09-12T04:04:00.895Z,1007.05
2018-09-12T04:05:00.915Z,1007.07
2018-09-12T04:06:00.871Z,1007.01
2018-09-12T04:07:00.869Z,1007.07
2018-09-12T04:08:00.851Z,1007.06
2018-09-12T04:09:00.843Z,1007.09
2018-09-12T04:10:00.856Z,1007.02
2018-09-12T04:11:00.820Z,1007.05
2018-09-12T04:12:00.802Z,1007.11
2018-09-12T04:13:00.792Z,1007.02
2018-09-12T04:14:00.784Z,1007.02
2018-09-12T04:15:00.806Z,1006.99
2018-09-12T04:16:00.757Z,1007.02
2018-09-12T04:17:00.864Z,1007.01
2018-09-12T04:18:00.734Z,1007.05
2018-09-12T04:19:00.724Z,1007.01
2018-09-12T04:20:00.720Z,1007.00
2018-09-12T04:21:00.717Z,1007.04
2018-09-12T04:22:00.687Z,1006.98
2018-09-12T04:23:00.681Z,1006.97
2018-09-12T04:24:00.661Z,1006.97
2018-09-12T04:25:00.659Z,1006.94
2018-09-12T04:26:00.665Z,1006.96
2018-09-12T04:27:00.629Z,1006.94
2018-09-12T04:28:00.623Z,1006.98
2018-09-12T04:29:00.609Z,1007.04
2018-09-12T04:30:00.600Z,1006.94
2018-09-12T04:31:00.606Z,1006.98
2018-09-12T04:32:00.574Z,1006.99
2018-09-12T04:33:00.559Z,1007.00
2018-09-12T04:34:00.542Z,1006.91
2018-09-12T04:35:00.539Z,1006.91
2018-09-12T04:36:00.553Z,1006.93
2018-09-12T04:37:00.511Z,1006.95
2018-09-12T04:38:00.496Z,1006.90
2018-09-12T04:39:00.493Z,1006.94
2018-09-12T04:40:00.476Z,1006.94
2018-09-12T04:41:00.488Z,1006.91
2018-09-12T04:42:00.459Z,1006.93
2018-09-12T04:43:00.436Z,1006.94
2018-09-12T04:44:00.434Z,1006.96
2018-09-12T04:45:00.419Z,1006.96
2018-09-12T04:46:00.431Z,1006.93
2018-09-12T04:47:00.403Z,1006.96
2018-09-12T04:48:00.389Z,1006.98
2018-09-12T04:49:00.375Z,1006.98
2018-09-12T04:50:00.365Z,1007.00
2018-09-12T04:51:00.366Z,1006.95
2018-09-12T04:52:00.335Z,1006.98
2018-09-12T04:53:00.326Z,1006.94
2018-09-12T04:54:00.310Z,1006.99
2018-09-12T04:55:00.303Z,1006.96
2018-09-12T04:56:00.309Z,1006.94
2018-09-12T04:57:00.281Z,1006.96
2018-09-12T04:58:00.261Z,1006.96
2018-09-12T04:59:00.258Z,1006.97
2018-09-12T05:00:00.246Z,1006.99
2018-09-12T05:01:00.250Z,1007.03
2018-09-12T05:02:00.216Z,1007.07
2018-09-12T05:03:00.216Z,1007.03
2018-09-12T05:04:00.196Z,1007.13
2018-09-12T05:05:00.188Z,1007.11
2018-09-12T05:06:00.188Z,1007.14
2018-09-12T05:07:00.169Z,1007.15
2018-09-12T05:08:00.144Z,1007.18
2018-09-12T05:09:00.140Z,1007.13
2018-09-12T05:10:00.120Z,1007.10
2018-09-12T05:11:00.138Z,1007.15
2018-09-12T05:12:00.101Z,1007.13
2018-09-12T05:13:00.088Z,1007.13
2018-09-12T05:14:00.073Z,1007.12
2018-09-12T05:15:00.065Z,1007.08
2018-09-12T05:16:00.167Z,1007.11
2018-09-12T05:17:00.042Z,1007.11
2018-09-12T05:18:00.024Z,1007.11
2018-09-12T05:19:00.014Z,1007.14
2018-09-12T05:20:00.006Z,1007.10
2018-09-12T05:21:00.009Z,1007.13
2018-09-12T05:21:59.995Z,1007.12
2018-09-12T05:22:59.962Z,1007.12
2018-09-12T05:23:59.961Z,1007.14
2018-09-12T05:24:59.940Z,1007.15
2018-09-12T05:25:59.953Z,1007.17
2018-09-12T05:26:59.921Z,1007.21
2018-09-12T05:27:59.912Z,1007.22
2018-09-12T05:28:59.902Z,1007.19
2018-09-12T05:29:59.886Z,1007.21
2018-09-12T05:30:59.895Z,1007.19
2018-09-12T05:31:59.874Z,1007.20
2018-09-12T05:33:00.016Z,1007.23
2018-09-12T05:33:59.839Z,1007.22
2018-09-12T05:34:59.823Z,1007.24
2018-09-12T05:35:59.931Z,1007.31
2018-09-12T05:36:59.801Z,1007.29
2018-09-12T05:37:59.793Z,1007.28
2018-09-12T05:38:59.777Z,1007.27
2018-09-12T05:39:59.769Z,1007.24
2018-09-12T05:40:59.753Z,1007.21
2018-09-12T05:41:59.761Z,1007.23
2018-09-12T05:42:59.736Z,1007.17
2018-09-12T05:43:59.718Z,1007.21
2018-09-12T05:44:59.711Z,1007.24
2018-09-12T05:45:59.704Z,1007.23
2018-09-12T05:46:59.705Z,1007.24
2018-09-12T05:47:59.725Z,1007.25
2018-09-12T05:48:59.669Z,1007.32
2018-09-12T05:49:59.688Z,1007.35
2018-09-12T05:50:59.734Z,1007.26
2018-09-12T05:51:59.653Z,1007.29
2018-09-12T05:52:59.610Z,1007.26
2018-09-12T05:53:59.605Z,1007.35
2018-09-12T05:54:59.595Z,1007.31
2018-09-12T05:55:59.578Z,1007.35
2018-09-12T05:56:59.593Z,1007.31
2018-09-12T05:57:59.555Z,1007.34
2018-09-12T05:58:59.547Z,1007.26
2018-09-12T05:59:59.532Z,1007.27
2018-09-12T06:00:59.598Z,1007.28
2018-09-12T06:01:59.529Z,1007.29
2018-09-12T06:02:59.507Z,1007.30
2018-09-12T06:03:59.486Z,1007.33
2018-09-12T06:04:59.477Z,1007.30
2018-09-12T06:05:59.461Z,1007.27
2018-09-12T06:06:59.581Z,1007.28
2018-09-12T06:07:59.436Z,1007.25
2018-09-12T06:08:59.427Z,1007.18
2018-09-12T06:09:59.413Z,1007.26
2018-09-12T06:10:59.412Z,1007.30
2018-09-12T06:11:59.411Z,1007.27
2018-09-12T06:12:59.386Z,1007.22
2018-09-12T06:13:59.438Z,1007.23
2018-09-12T06:14:59.366Z,1007.27
2018-09-12T06:15:59.346Z,1007.28
2018-09-12T06:16:59.360Z,1007.28
2018-09-12T06:17:59.323Z,1007.24
2018-09-12T06:18:59.314Z,1007.24
2018-09-12T06:19:59.306Z,1007.27
2018-09-12T06:20:59.287Z,1007.32
2018-09-12T06:21:59.299Z,1007.32
2018-09-12T06:22:59.268Z,1007.23
2018-09-12T06:23:59.256Z,1007.36
2018-09-12T06:24:59.243Z,1007.36
2018-09-12T06:25:59.226Z,1007.42
2018-09-12T06:26:59.245Z,1007.43
2018-09-12T06:27:59.209Z,1007.44
2018-09-12T06:28:59.193Z,1007.46
2018-09-12T06:29:59.178Z,1007.44
2018-09-12T06:30:59.175Z,1007.41
2018-09-12T06:31:59.185Z,1007.42
2018-09-12T06:32:59.142Z,1007.45
2018-09-12T06:33:59.137Z,1007.47
2018-09-12T06:34:59.125Z,1007.49
2018-09-12T06:35:59.112Z,1007.54
2018-09-12T06:36:59.137Z,1007.59
2018-09-12T06:37:59.084Z,1007.56
2018-09-12T06:38:59.085Z,1007.60
2018-09-12T06:39:59.065Z,1007.59
2018-09-12T06:40:59.058Z,1007.63
2018-09-12T06:41:59.039Z,1007.60
2018-09-12T06:42:59.075Z,1007.69
2018-09-12T06:43:59.016Z,1007.66
2018-09-12T06:44:59.008Z,1007.64
2018-09-12T06:45:58.994Z,1007.61
2018-09-12T06:46:58.984Z,1007.63
2018-09-12T06:47:58.988Z,1007.66
2018-09-12T06:48:58.967Z,1007.64
2018-09-12T06:49:58.943Z,1007.67
2018-09-12T06:50:58.941Z,1007.63
2018-09-12T06:51:58.927Z,1007.69
2018-09-12T06:52:58.937Z,1007.66
2018-09-12T06:53:58.963Z,1007.69
2018-09-12T06:54:58.892Z,1007.76
2018-09-12T06:55:58.886Z,1007.73
2018-09-12T06:56:58.869Z,1007.77
2018-09-12T06:57:58.879Z,1007.68
2018-09-12T06:58:58.848Z,1007.70
2018-09-12T06:59:58.829Z,1007.65
2018-09-12T07:00:58.847Z,1007.63
2018-09-12T07:01:58.810Z,1007.71
2018-09-12T07:02:58.818Z,1007.64
2018-09-12T07:03:58.792Z,1007.63
2018-09-12T07:04:58.774Z,1007.67
2018-09-12T07:05:58.760Z,1007.69
2018-09-12T07:06:58.751Z,1007.71
2018-09-12T07:07:58.756Z,1007.62
2018-09-12T07:08:58.730Z,1007.69
2018-09-12T07:09:58.719Z,1007.65
2018-09-12T07:10:58.705Z,1007.68
2018-09-12T07:11:58.694Z,1007.76
2018-09-12T07:12:58.697Z,1007.71
2018-09-12T07:13:58.666Z,1007.80
2018-09-12T07:14:58.655Z,1007.79
2018-09-12T07:15:58.642Z,1007.77
2018-09-12T07:16:58.631Z,1007.78
2018-09-12T07:17:58.671Z,1007.80
2018-09-12T07:18:58.605Z,1007.79
2018-09-12T07:19:58.596Z,1007.87
2018-09-12T07:20:58.582Z,1007.94
2018-09-12T07:21:58.566Z,1007.87
2018-09-12T07:22:58.564Z,1007.84
2018-09-12T07:23:58.566Z,1007.82
2018-09-12T07:24:58.537Z,1007.77
2018-09-12T07:25:58.527Z,1007.85
2018-09-12T07:26:58.508Z,1007.78
2018-09-12T07:27:58.495Z,1007.82
2018-09-12T07:28:58.518Z,1007.79
2018-09-12T07:29:58.478Z,1007.94
2018-09-12T07:30:58.463Z,1007.91
2018-09-12T07:31:58.455Z,1007.95
2018-09-12T07:32:58.441Z,1008.02
2018-09-12T07:33:58.448Z,1007.96
2018-09-12T07:34:58.424Z,1008.04
2018-09-12T07:35:58.417Z,1007.95
2018-09-12T07:36:58.389Z,1007.98
2018-09-12T07:37:58.382Z,1007.93
2018-09-12T07:38:58.397Z,1008.00
2018-09-12T07:39:58.353Z,1008.05
2018-09-12T07:40:58.367Z,1008.04
2018-09-12T07:41:58.337Z,1008.04
2018-09-12T07:42:58.321Z,1008.03
2018-09-12T07:43:58.336Z,1008.05
2018-09-12T07:44:58.303Z,1008.07
2018-09-12T07:45:58.314Z,1008.07
2018-09-12T07:46:58.272Z,1008.05
2018-09-12T07:47:58.264Z,1008.04
2018-09-12T07:48:58.296Z,1007.79
2018-09-12T07:49:58.242Z,1007.92
2018-09-12T07:50:58.236Z,1008.11
2018-09-12T07:51:58.218Z,1008.16
2018-09-12T07:52:58.214Z,1008.18
2018-09-12T07:53:58.222Z,1008.09
2018-09-12T07:54:58.191Z,1008.07
2018-09-12T07:55:58.260Z,1008.04
2018-09-12T07:56:58.162Z,1008.07
2018-09-12T07:57:58.151Z,1007.98
2018-09-12T07:58:58.137Z,1008.23
2018-09-12T07:59:58.195Z,1008.01
2018-09-12T08:00:58.122Z,1008.07
2018-09-12T08:01:58.108Z,1008.35
2018-09-12T08:02:58.094Z,1008.33
2018-09-12T08:03:58.082Z,1008.24
2018-09-12T08:04:58.167Z,1008.24
2018-09-12T08:05:58.066Z,1008.10
2018-09-12T08:06:58.048Z,1008.03
2018-09-12T08:07:58.042Z,1008.00
2018-09-12T08:08:58.027Z,1008.12
2018-09-12T08:09:58.036Z,1008.04
2018-09-12T08:10:58.006Z,1008.11
2018-09-12T08:11:57.994Z,1008.03
2018-09-12T08:12:57.980Z,1008.06
2018-09-12T08:13:57.971Z,1008.07
2018-09-12T08:14:57.986Z,1008.09
2018-09-12T08:15:57.945Z,1007.98
2018-09-12T08:16:57.970Z,1007.98
2018-09-12T08:17:57.923Z,1007.99
2018-09-12T08:18:57.934Z,1007.98
2018-09-12T08:19:57.922Z,1008.03
2018-09-12T08:20:57.898Z,1008.08
2018-09-12T08:21:57.884Z,1008.43
2018-09-12T08:22:57.863Z,1008.27
2018-09-12T08:23:57.860Z,1008.15
2018-09-12T08:24:57.871Z,1008.28
2018-09-12T08:25:57.826Z,1008.23
2018-09-12T08:26:57.825Z,1008.21
2018-09-12T08:27:57.808Z,1008.19
2018-09-12T08:28:57.820Z,1008.13
2018-09-12T08:29:57.783Z,1008.12
2018-09-12T08:30:57.792Z,1008.24
2018-09-12T08:31:57.756Z,1008.19
2018-09-12T08:32:57.748Z,1008.32
2018-09-12T08:33:57.735Z,1008.33
2018-09-12T08:34:57.731Z,1008.39
2018-09-12T08:35:57.739Z,1008.32
2018-09-12T08:36:57.713Z,1008.30
2018-09-12T08:37:57.688Z,1008.31
2018-09-12T08:38:57.689Z,1008.24
2018-09-12T08:39:57.668Z,1008.34
2018-09-12T08:40:57.682Z,1008.34
2018-09-12T08:41:57.646Z,1008.31
2018-09-12T08:42:57.637Z,1008.32
2018-09-12T08:43:57.619Z,1008.33
2018-09-12T08:44:57.620Z,1008.36
2018-09-12T08:45:57.620Z,1008.30
2018-09-12T08:46:57.589Z,1008.30
2018-09-12T08:47:57.578Z,1008.32
2018-09-12T08:48:57.564Z,1008.35
2018-09-12T08:49:57.555Z,1008.29
2018-09-12T08:50:57.570Z,1008.28
2018-09-12T08:51:57.533Z,1008.27
2018-09-12T08:52:57.593Z,1008.30
2018-09-12T08:53:57.511Z,1008.24
2018-09-12T08:54:57.502Z,1008.29
2018-09-12T08:55:57.506Z,1008.23
2018-09-12T08:56:57.482Z,1008.29
2018-09-12T08:57:57.462Z,1008.21
2018-09-12T08:58:57.460Z,1008.31
2018-09-12T08:59:57.449Z,1008.30
2018-09-12T09:00:57.450Z,1008.35
2018-09-12T09:01:57.421Z,1008.26
2018-09-12T09:02:57.407Z,1008.19
2018-09-12T09:03:57.413Z,1008.26
2018-09-12T09:04:57.388Z,1008.22
2018-09-12T09:05:57.404Z,1008.26
2018-09-12T09:06:57.368Z,1008.23
2018-09-12T09:07:57.358Z,1008.34
2018-09-12T09:08:57.345Z,1008.28
2018-09-12T09:09:57.331Z,1008.27
2018-09-12T09:10:57.350Z,1008.31
2018-09-12T09:11:57.329Z,1008.29
2018-09-12T09:12:57.303Z,1008.28
2018-09-12T09:13:57.297Z,1008.27
2018-09-12T09:14:57.277Z,1008.29
2018-09-12T09:15:57.293Z,1008.26
2018-09-12T09:16:57.258Z,1008.30
2018-09-12T09:17:57.244Z,1008.30
2018-09-12T09:18:57.235Z,1008.34
2018-09-12T09:19:57.225Z,1008.34
2018-09-12T09:20:57.233Z,1008.41
2018-09-12T09:21:57.210Z,1008.33
2018-09-12T09:22:57.191Z,1008.33
2018-09-12T09:23:57.188Z,1008.35
2018-09-12T09:24:57.168Z,1008.32
2018-09-12T09:25:57.181Z,1008.25
2018-09-12T09:26:57.150Z,1008.29
2018-09-12T09:27:57.134Z,1008.29
2018-09-12T09:28:57.132Z,1008.34
2018-09-12T09:29:57.118Z,1008.34
2018-09-12T09:30:57.135Z,1008.29
2018-09-12T09:31:57.100Z,1008.32
2018-09-12T09:32:57.085Z,1008.22
2018-09-12T09:33:57.077Z,1008.24
2018-09-12T09:34:57.139Z,1008.18
2018-09-12T09:35:57.046Z,1008.26
2018-09-12T09:36:57.065Z,1008.25
2018-09-12T09:37:57.030Z,1008.30
2018-09-12T09:38:57.017Z,1008.24
2018-09-12T09:39:57.002Z,1008.26
2018-09-12T09:40:56.997Z,1008.29
2018-09-12T09:41:57.005Z,1008.22
2018-09-12T09:42:56.980Z,1008.32
2018-09-12T09:43:57.016Z,1008.25
2018-09-12T09:44:56.955Z,1008.34
2018-09-12T09:45:56.941Z,1008.33
2018-09-12T09:46:56.956Z,1008.34
2018-09-12T09:47:57.043Z,1008.33
2018-09-12T09:48:56.920Z,1008.34
2018-09-12T09:49:56.899Z,1008.31
2018-09-12T09:50:56.892Z,1008.34
2018-09-12T09:51:56.903Z,1008.27
2018-09-12T09:52:56.875Z,1008.27
2018-09-12T09:53:56.860Z,1008.32
2018-09-12T09:54:56.891Z,1008.28
2018-09-12T09:55:56.839Z,1008.29
2018-09-12T09:56:56.854Z,1008.32
2018-09-12T09:57:56.819Z,1008.33
2018-09-12T09:58:56.811Z,1008.29
2018-09-12T09:59:56.792Z,1008.26
2018-09-12T10:00:56.792Z,1008.30
2018-09-12T10:01:56.792Z,1008.29
2018-09-12T10:02:56.771Z,1008.27
2018-09-12T10:03:56.751Z,1008.31
2018-09-12T10:04:56.744Z,1008.30
2018-09-12T10:05:56.756Z,1008.24
2018-09-12T10:06:56.743Z,1008.20
2018-09-12T10:07:56.716Z,1008.17
2018-09-12T10:08:56.714Z,1008.19
2018-09-12T10:09:56.686Z,1008.18
2018-09-12T10:10:56.686Z,1008.26
2018-09-12T10:11:56.765Z,1008.19
2018-09-12T10:12:56.658Z,1008.28
2018-09-12T10:13:56.645Z,1008.31
2018-09-12T10:14:56.644Z,1008.27
2018-09-12T10:15:56.626Z,1008.22
2018-09-12T10:16:56.642Z,1008.20
2018-09-12T10:17:56.613Z,1008.22
2018-09-12T10:18:56.593Z,1008.19
2018-09-12T10:19:56.591Z,1008.34
2018-09-12T10:20:56.575Z,1008.30
2018-09-12T10:21:56.591Z,1008.27
2018-09-12T10:22:56.565Z,1008.28
2018-09-12T10:23:56.546Z,1008.34
2018-09-12T10:24:56.532Z,1008.24
2018-09-12T10:25:56.523Z,1008.29
2018-09-12T10:26:56.539Z,1008.28
2018-09-12T10:27:56.509Z,1008.34
2018-09-12T10:28:56.490Z,1008.42
2018-09-12T10:29:56.482Z,1008.41
2018-09-12T10:30:56.474Z,1008.41
2018-09-12T10:31:56.489Z,1007.99
2018-09-12T10:32:56.460Z,1008.38
2018-09-12T10:33:56.445Z,1008.33
2018-09-12T10:34:56.432Z,1008.05
2018-09-12T10:35:56.418Z,1008.02
2018-09-12T10:36:56.417Z,1008.11
2018-09-12T10:37:56.429Z,1008.11
2018-09-12T10:38:56.392Z,1008.15
2018-09-12T10:39:56.386Z,1008.46
2018-09-12T10:40:56.392Z,1008.06
2018-09-12T10:41:56.358Z,1008.39
2018-09-12T10:42:56.374Z,1008.04
2018-09-12T10:43:56.347Z,1008.30
2018-09-12T10:44:56.332Z,1008.37
2018-09-12T10:45:56.324Z,1008.06
2018-09-12T10:46:56.303Z,1008.10
2018-09-12T10:47:56.316Z,1008.09
2018-09-12T10:48:56.290Z,1008.22
2018-09-12T10:49:56.274Z,1008.39
2018-09-12T10:50:56.262Z,1008.14
2018-09-12T10:51:56.252Z,1008.32
2018-09-12T10:52:56.265Z,1007.96
2018-09-12T10:53:56.235Z,1007.94
2018-09-12T10:54:56.217Z,1007.93
2018-09-12T10:55:56.213Z,1007.95
2018-09-12T10:56:56.199Z,1007.97
2018-09-12T10:57:56.207Z,1007.99
2018-09-12T10:58:56.187Z,1008.36
2018-09-12T10:59:56.169Z,1008.37
2018-09-12T11:00:56.162Z,1008.34
2018-09-12T11:01:56.140Z,1008.04
2018-09-12T11:02:56.162Z,1007.98
2018-09-12T11:03:56.123Z,1008.33
2018-09-12T11:04:56.114Z,1008.33
2018-09-12T11:05:56.100Z,1008.20
2018-09-12T11:06:56.093Z,1008.36
2018-09-12T11:07:56.103Z,1008.29
2018-09-12T11:08:56.068Z,1008.30
2018-09-12T11:09:56.054Z,1008.11
2018-09-12T11:10:56.053Z,1008.00
2018-09-12T11:11:56.043Z,1007.94
2018-09-12T11:12:56.052Z,1008.32
2018-09-12T11:13:56.018Z,1008.31
2018-09-12T11:14:56.009Z,1008.28
2018-09-12T11:15:55.997Z,1008.25
2018-09-12T11:16:55.988Z,1008.35
2018-09-12T11:17:55.981Z,1008.34
2018-09-12T11:18:55.983Z,1008.25
2018-09-12T11:19:55.950Z,1008.32
2018-09-12T11:20:55.949Z,1008.35
2018-09-12T11:21:55.935Z,1008.30
2018-09-12T11:22:55.922Z,1008.26
2018-09-12T11:23:55.949Z,1008.29
2018-09-12T11:24:55.908Z,1008.27
2018-09-12T11:25:55.889Z,1008.29
2018-09-12T11:26:55.885Z,1008.31
2018-09-12T11:27:55.868Z,1008.30
2018-09-12T11:28:55.890Z,1008.21
2018-09-12T11:29:55.848Z,1007.99
2018-09-12T11:30:55.848Z,1008.35
2018-09-12T11:31:55.828Z,1008.28
2018-09-12T11:32:55.828Z,1008.34
2018-09-12T11:33:55.836Z,1008.28
2018-09-12T11:34:55.801Z,1008.35
2018-09-12T11:35:55.790Z,1008.33
2018-09-12T11:36:55.784Z,1008.27
2018-09-12T11:37:55.777Z,1008.23
2018-09-12T11:38:55.779Z,1008.32
2018-09-12T11:39:55.805Z,1008.10
2018-09-12T11:40:55.745Z,1008.23
2018-09-12T11:41:55.732Z,1008.31
2018-09-12T11:42:55.720Z,1008.14
2018-09-12T11:43:55.739Z,1008.15
2018-09-12T11:44:55.697Z,1008.35
2018-09-12T11:45:55.689Z,1008.39
2018-09-12T11:46:55.683Z,1008.27
2018-09-12T11:47:55.669Z,1008.09
2018-09-12T11:48:55.732Z,1008.11
2018-09-12T11:49:55.650Z,1008.18
2018-09-12T11:50:55.641Z,1008.20
2018-09-12T11:51:55.631Z,1008.22
2018-09-12T11:52:55.618Z,1008.26
2018-09-12T11:53:55.635Z,1008.29
2018-09-12T11:54:55.603Z,1008.23
2018-09-12T11:55:55.585Z,1008.10
2018-09-12T11:56:55.577Z,1008.14
2018-09-12T11:57:55.569Z,1008.22
2018-09-12T11:58:55.548Z,1008.24
2018-09-12T11:59:55.568Z,1008.36
2018-09-12T12:00:55.531Z,1008.21
2018-09-12T12:01:55.518Z,1008.16
2018-09-12T12:02:55.518Z,1008.20
2018-09-12T12:03:55.498Z,1008.16
2018-09-12T12:04:55.521Z,1008.18